Carmel Valley, California
Current Conditions -  °F | °C
As of 3:13 AM on Saturday 20 Dec 2014 (Local Time) from KMRY Reporting Station
Overcast Overcast  
Wind Chill: 55°   Ceiling: 4600
Heat Index: 55°   Visibility: 10mi
Dew Point: 55°   Wind: 3mph
Humidity: 100%   Direction: 110°ESE
Pressure: 30.14"   Gusts: NA
Location:  36.48°N, 121.73°W
Report Text: KMRY 201113Z 11003KT 10SM FEW027 BKN046 OVC075 13/13 A3014 RMK AO2
Loading
Personal Weather Stations






























Interactive Weather Map New forecast layout! Learn more

10-Day Weather Forecast

Advertisements
Track Severe Weather on mobile